sensor_id;sensor_type;location;lat;lon;timestamp;pressure;altitude;pressure_sealevel;temperature;humidity
55460;BME280;41326;45.302;-122.946;2023-05-25T00:00:37;100825.12;;;19.36;53.84
55460;BME280;41326;45.302;-122.946;2023-05-25T00:03:08;100827.88;;;19.31;54.11
55460;BME280;41326;45.302;-122.946;2023-05-25T00:05:38;100827.89;;;19.33;54.14
55460;BME280;41326;45.302;-122.946;2023-05-25T00:08:08;100826.78;;;19.41;54.03
55460;BME280;41326;45.302;-122.946;2023-05-25T00:10:38;100820.61;;;19.43;54.05
55460;BME280;41326;45.302;-122.946;2023-05-25T00:13:09;100816.29;;;19.48;53.96
55460;BME280;41326;45.302;-122.946;2023-05-25T00:15:39;100808.69;;;19.52;53.78
55460;BME280;41326;45.302;-122.946;2023-05-25T00:18:09;100804.00;;;19.53;53.78
55460;BME280;41326;45.302;-122.946;2023-05-25T00:20:40;100810.30;;;19.54;53.83
55460;BME280;41326;45.302;-122.946;2023-05-25T00:23:10;100808.02;;;19.54;53.92
55460;BME280;41326;45.302;-122.946;2023-05-25T00:25:40;100802.53;;;19.58;53.84
55460;BME280;41326;45.302;-122.946;2023-05-25T00:28:12;100797.64;;;19.60;53.88
55460;BME280;41326;45.302;-122.946;2023-05-25T00:30:42;100795.10;;;19.61;53.90
55460;BME280;41326;45.302;-122.946;2023-05-25T00:33:12;100789.40;;;19.63;53.90
55460;BME280;41326;45.302;-122.946;2023-05-25T00:35:42;100787.70;;;19.62;53.93
55460;BME280;41326;45.302;-122.946;2023-05-25T00:38:17;100783.98;;;19.63;53.90
55460;BME280;41326;45.302;-122.946;2023-05-25T00:40:44;100784.21;;;19.66;53.87
55460;BME280;41326;45.302;-122.946;2023-05-25T00:43:14;100777.31;;;19.67;53.91
55460;BME280;41326;45.302;-122.946;2023-05-25T00:45:44;100776.00;;;19.70;53.91
55460;BME280;41326;45.302;-122.946;2023-05-25T00:48:14;100775.92;;;19.70;54.03
55460;BME280;41326;45.302;-122.946;2023-05-25T00:50:45;100773.74;;;19.73;53.99
55460;BME280;41326;45.302;-122.946;2023-05-25T00:53:16;100772.54;;;19.74;54.02
55460;BME280;41326;45.302;-122.946;2023-05-25T00:55:51;100767.81;;;19.78;53.92
55460;BME280;41326;45.302;-122.946;2023-05-25T00:58:16;100762.77;;;19.78;53.93
55460;BME280;41326;45.302;-122.946;2023-05-25T01:00:47;100756.82;;;19.80;53.95
55460;BME280;41326;45.302;-122.946;2023-05-25T01:03:19;100759.43;;;19.83;53.91
55460;BME280;41326;45.302;-122.946;2023-05-25T01:05:49;100755.59;;;19.88;53.82
55460;BME280;41326;45.302;-122.946;2023-05-25T01:08:19;100756.76;;;19.87;53.93
55460;BME280;41326;45.302;-122.946;2023-05-25T01:10:50;100754.83;;;19.91;53.88
55460;BME280;41326;45.302;-122.946;2023-05-25T01:13:19;100750.04;;;19.92;53.86
55460;BME280;41326;45.302;-122.946;2023-05-25T01:15:50;100745.65;;;19.93;53.82
55460;BME280;41326;45.302;-122.946;2023-05-25T01:18:20;100747.19;;;19.92;53.79
55460;BME280;41326;45.302;-122.946;2023-05-25T01:20:56;100745.91;;;19.94;53.81
55460;BME280;41326;45.302;-122.946;2023-05-25T01:23:21;100741.02;;;19.91;54.20
55460;BME280;41326;45.302;-122.946;2023-05-25T01:25:53;100741.17;;;19.95;54.50
55460;BME280;41326;45.302;-122.946;2023-05-25T01:28:24;100745.03;;;20.00;54.38
55460;BME280;41326;45.302;-122.946;2023-05-25T01:30:53;100741.81;;;20.04;54.29
55460;BME280;41326;45.302;-122.946;2023-05-25T01:33:22;100737.84;;;20.05;54.38
55460;BME280;41326;45.302;-122.946;2023-05-25T01:35:51;100736.04;;;20.01;54.86
55460;BME280;41326;45.302;-122.946;2023-05-25T01:38:22;100734.18;;;20.04;55.17
55460;BME280;41326;45.302;-122.946;2023-05-25T01:40:53;100729.35;;;20.06;55.83
55460;BME280;41326;45.302;-122.946;2023-05-25T01:43:23;100730.05;;;20.13;56.38
55460;BME280;41326;45.302;-122.946;2023-05-25T01:45:55;100728.82;;;20.19;56.97
55460;BME280;41326;45.302;-122.946;2023-05-25T01:48:29;100730.39;;;20.14;57.53
55460;BME280;41326;45.302;-122.946;2023-05-25T01:50:57;100732.43;;;20.17;57.37
55460;BME280;41326;45.302;-122.946;2023-05-25T01:53:26;100728.70;;;20.16;57.33
55460;BME280;41326;45.302;-122.946;2023-05-25T01:55:59;100730.79;;;20.23;57.06
55460;BME280;41326;45.302;-122.946;2023-05-25T01:58:25;100735.88;;;20.32;55.21
55460;BME280;41326;45.302;-122.946;2023-05-25T02:00:55;100733.42;;;20.41;53.85
55460;BME280;41326;45.302;-122.946;2023-05-25T02:03:26;100733.52;;;20.50;52.83
55460;BME280;41326;45.302;-122.946;2023-05-25T02:05:55;100737.21;;;20.55;52.43
55460;BME280;41326;45.302;-122.946;2023-05-25T02:08:25;100733.58;;;20.58;51.96
55460;BME280;41326;45.302;-122.946;2023-05-25T02:10:56;100739.82;;;20.52;51.97
55460;BME280;41326;45.302;-122.946;2023-05-25T02:13:27;100741.26;;;20.52;51.87
55460;BME280;41326;45.302;-122.946;2023-05-25T02:15:57;100743.78;;;20.51;51.61
55460;BME280;41326;45.302;-122.946;2023-05-25T02:18:27;100746.74;;;20.47;52.19
55460;BME280;41326;45.302;-122.946;2023-05-25T02:20:58;100752.89;;;20.44;52.79
55460;BME280;41326;45.302;-122.946;2023-05-25T02:23:29;100757.70;;;20.46;53.08
55460;BME280;41326;45.302;-122.946;2023-05-25T02:25:59;100754.93;;;20.46;53.17
55460;BME280;41326;45.302;-122.946;2023-05-25T02:28:30;100759.37;;;20.50;52.20
55460;BME280;41326;45.302;-122.946;2023-05-25T02:31:00;100758.30;;;20.41;52.28
55460;BME280;41326;45.302;-122.946;2023-05-25T02:33:31;100758.27;;;20.43;52.22
55460;BME280;41326;45.302;-122.946;2023-05-25T02:36:01;100754.72;;;20.38;52.01
55460;BME280;41326;45.302;-122.946;2023-05-25T02:38:31;100753.85;;;20.44;51.59
55460;BME280;41326;45.302;-122.946;2023-05-25T02:41:01;100757.00;;;20.39;51.50
55460;BME280;41326;45.302;-122.946;2023-05-25T02:43:32;100760.28;;;20.39;51.54
55460;BME280;41326;45.302;-122.946;2023-05-25T02:46:02;100762.30;;;20.38;51.56
55460;BME280;41326;45.302;-122.946;2023-05-25T02:48:32;100763.26;;;20.37;51.30
55460;BME280;41326;45.302;-122.946;2023-05-25T02:51:02;100763.50;;;20.33;51.31
55460;BME280;41326;45.302;-122.946;2023-05-25T02:53:32;100764.59;;;20.32;51.35
55460;BME280;41326;45.302;-122.946;2023-05-25T02:56:02;100767.12;;;20.31;51.06
55460;BME280;41326;45.302;-122.946;2023-05-25T02:58:33;100763.66;;;20.14;51.62
55460;BME280;41326;45.302;-122.946;2023-05-25T03:01:03;100768.15;;;20.22;50.95
55460;BME280;41326;45.302;-122.946;2023-05-25T03:03:33;100770.94;;;20.27;50.68
55460;BME280;41326;45.302;-122.946;2023-05-25T03:06:04;100774.10;;;20.21;50.74
55460;BME280;41326;45.302;-122.946;2023-05-25T03:08:34;100776.12;;;20.18;50.74
55460;BME280;41326;45.302;-122.946;2023-05-25T03:11:04;100776.19;;;20.17;50.62
55460;BME280;41326;45.302;-122.946;2023-05-25T03:13:35;100777.55;;;20.13;50.65
55460;BME280;41326;45.302;-122.946;2023-05-25T03:16:06;100782.24;;;20.22;50.32
55460;BME280;41326;45.302;-122.946;2023-05-25T03:18:35;100785.14;;;20.11;50.50
55460;BME280;41326;45.302;-122.946;2023-05-25T03:21:06;100784.39;;;20.12;50.16
55460;BME280;41326;45.302;-122.946;2023-05-25T03:23:37;100786.96;;;20.09;50.23
55460;BME280;41326;45.302;-122.946;2023-05-25T03:26:07;100790.17;;;20.35;48.91
55460;BME280;41326;45.302;-122.946;2023-05-25T03:28:38;100787.29;;;20.21;49.38
55460;BME280;41326;45.302;-122.946;2023-05-25T03:31:08;100791.75;;;20.12;49.84
55460;BME280;41326;45.302;-122.946;2023-05-25T03:33:38;100798.54;;;19.97;50.32
55460;BME280;41326;45.302;-122.946;2023-05-25T03:36:11;100798.11;;;19.89;50.58
55460;BME280;41326;45.302;-122.946;2023-05-25T03:38:39;100795.82;;;19.98;49.67
55460;BME280;41326;45.302;-122.946;2023-05-25T03:41:09;100795.75;;;19.84;50.24
55460;BME280;41326;45.302;-122.946;2023-05-25T03:43:40;100795.83;;;19.85;50.09
55460;BME280;41326;45.302;-122.946;2023-05-25T03:46:10;100801.27;;;20.08;48.97
55460;BME280;41326;45.302;-122.946;2023-05-25T03:48:40;100802.95;;;19.98;49.44
55460;BME280;41326;45.302;-122.946;2023-05-25T03:51:11;100804.94;;;19.87;50.16
55460;BME280;41326;45.302;-122.946;2023-05-25T03:53:42;100806.75;;;20.06;49.03
55460;BME280;41326;45.302;-122.946;2023-05-25T03:56:12;100805.18;;;19.83;50.20
55460;BME280;41326;45.302;-122.946;2023-05-25T03:58:43;100805.00;;;19.81;50.62
55460;BME280;41326;45.302;-122.946;2023-05-25T04:01:13;100804.83;;;19.67;51.31
55460;BME280;41326;45.302;-122.946;2023-05-25T04:03:44;100802.28;;;19.82;50.79
55460;BME280;41326;45.302;-122.946;2023-05-25T04:06:14;100803.34;;;19.74;51.12
55460;BME280;41326;45.302;-122.946;2023-05-25T04:08:45;100806.26;;;19.61;51.80
55460;BME280;41326;45.302;-122.946;2023-05-25T04:11:16;100817.21;;;19.59;51.87
55460;BME280;41326;45.302;-122.946;2023-05-25T04:13:46;100815.45;;;19.67;51.10
55460;BME280;41326;45.302;-122.946;2023-05-25T04:16:16;100820.39;;;19.72;51.71
55460;BME280;41326;45.302;-122.946;2023-05-25T04:18:46;100826.30;;;19.60;52.28
55460;BME280;41326;45.302;-122.946;2023-05-25T04:21:16;100827.16;;;19.75;50.93
55460;BME280;41326;45.302;-122.946;2023-05-25T04:23:47;100833.33;;;19.77;50.79
55460;BME280;41326;45.302;-122.946;2023-05-25T04:26:18;100834.39;;;19.93;50.58
55460;BME280;41326;45.302;-122.946;2023-05-25T04:28:48;100839.11;;;19.91;50.68
55460;BME280;41326;45.302;-122.946;2023-05-25T04:31:19;100840.46;;;19.91;50.90
55460;BME280;41326;45.302;-122.946;2023-05-25T04:33:49;100842.40;;;19.97;50.79
55460;BME280;41326;45.302;-122.946;2023-05-25T04:36:19;100844.14;;;19.81;51.45
55460;BME280;41326;45.302;-122.946;2023-05-25T04:38:50;100847.91;;;19.68;52.32
55460;BME280;41326;45.302;-122.946;2023-05-25T04:41:20;100846.41;;;19.55;52.97
55460;BME280;41326;45.302;-122.946;2023-05-25T04:43:50;100850.20;;;19.49;52.99
55460;BME280;41326;45.302;-122.946;2023-05-25T04:46:21;100854.00;;;19.61;52.70
55460;BME280;41326;45.302;-122.946;2023-05-25T04:48:51;100854.02;;;19.37;53.79
55460;BME280;41326;45.302;-122.946;2023-05-25T04:51:21;100859.73;;;19.17;54.46
55460;BME280;41326;45.302;-122.946;2023-05-25T04:53:51;100861.36;;;19.26;53.98
55460;BME280;41326;45.302;-122.946;2023-05-25T04:56:22;100861.87;;;19.19;54.56
55460;BME280;41326;45.302;-122.946;2023-05-25T04:58:52;100865.46;;;19.21;54.57
55460;BME280;41326;45.302;-122.946;2023-05-25T05:01:22;100872.11;;;19.06;55.11
55460;BME280;41326;45.302;-122.946;2023-05-25T05:03:52;100878.53;;;19.01;55.34
55460;BME280;41326;45.302;-122.946;2023-05-25T05:06:22;100872.19;;;19.33;54.06
55460;BME280;41326;45.302;-122.946;2023-05-25T05:08:53;100877.70;;;19.13;55.07
55460;BME280;41326;45.302;-122.946;2023-05-25T05:11:23;100880.04;;;18.99;55.31
55460;BME280;41326;45.302;-122.946;2023-05-25T05:13:53;100877.90;;;18.88;55.77
55460;BME280;41326;45.302;-122.946;2023-05-25T05:16:24;100875.84;;;18.90;55.65
55460;BME280;41326;45.302;-122.946;2023-05-25T05:18:54;100874.20;;;18.81;56.07
55460;BME280;41326;45.302;-122.946;2023-05-25T05:21:24;100873.70;;;18.93;55.80
55460;BME280;41326;45.302;-122.946;2023-05-25T05:23:54;100873.14;;;18.94;55.83
55460;BME280;41326;45.302;-122.946;2023-05-25T05:26:25;100870.21;;;18.96;55.69
55460;BME280;41326;45.302;-122.946;2023-05-25T05:28:56;100873.31;;;18.97;55.78
55460;BME280;41326;45.302;-122.946;2023-05-25T05:31:26;100874.75;;;19.03;55.65
55460;BME280;41326;45.302;-122.946;2023-05-25T05:33:56;100874.62;;;19.08;55.67
55460;BME280;41326;45.302;-122.946;2023-05-25T05:36:26;100868.45;;;19.13;55.81
55460;BME280;41326;45.302;-122.946;2023-05-25T05:38:56;100871.78;;;19.10;56.08
55460;BME280;41326;45.302;-122.946;2023-05-25T05:41:27;100871.52;;;19.15;56.12
55460;BME280;41326;45.302;-122.946;2023-05-25T05:43:57;100866.62;;;19.26;55.88
55460;BME280;41326;45.302;-122.946;2023-05-25T05:46:28;100872.24;;;19.22;56.07
55460;BME280;41326;45.302;-122.946;2023-05-25T05:48:58;100871.64;;;19.23;56.07
55460;BME280;41326;45.302;-122.946;2023-05-25T05:52:36;100871.55;;;19.20;56.27
55460;BME280;41326;45.302;-122.946;2023-05-25T05:55:06;100868.15;;;19.21;56.37
55460;BME280;41326;45.302;-122.946;2023-05-25T05:57:36;100869.20;;;19.18;56.58
55460;BME280;41326;45.302;-122.946;2023-05-25T06:00:07;100867.60;;;19.23;56.36
55460;BME280;41326;45.302;-122.946;2023-05-25T06:02:37;100866.89;;;19.21;56.40
55460;BME280;41326;45.302;-122.946;2023-05-25T06:05:07;100869.32;;;19.22;56.38
55460;BME280;41326;45.302;-122.946;2023-05-25T06:07:37;100865.55;;;19.23;56.36
55460;BME280;41326;45.302;-122.946;2023-05-25T06:10:08;100863.69;;;19.26;56.39
55460;BME280;41326;45.302;-122.946;2023-05-25T06:12:48;100869.84;;;19.20;56.47
55460;BME280;41326;45.302;-122.946;2023-05-25T06:15:18;100867.97;;;19.13;56.80
55460;BME280;41326;45.302;-122.946;2023-05-25T06:17:48;100871.24;;;19.07;56.72
55460;BME280;41326;45.302;-122.946;2023-05-25T06:20:19;100862.73;;;19.16;56.62
55460;BME280;41326;45.302;-122.946;2023-05-25T06:22:49;100859.79;;;19.19;56.52
55460;BME280;41326;45.302;-122.946;2023-05-25T06:25:20;100857.74;;;19.17;56.48
55460;BME280;41326;45.302;-122.946;2023-05-25T06:27:50;100854.61;;;19.17;56.51
55460;BME280;41326;45.302;-122.946;2023-05-25T06:30:21;100857.39;;;19.25;56.24
55460;BME280;41326;45.302;-122.946;2023-05-25T06:32:51;100858.42;;;19.23;56.26
55460;BME280;41326;45.302;-122.946;2023-05-25T06:35:21;100856.14;;;19.27;56.22
55460;BME280;41326;45.302;-122.946;2023-05-25T06:37:52;100854.60;;;19.25;56.38
55460;BME280;41326;45.302;-122.946;2023-05-25T06:40:22;100853.71;;;19.29;56.15
55460;BME280;41326;45.302;-122.946;2023-05-25T06:42:52;100852.31;;;19.34;55.91
55460;BME280;41326;45.302;-122.946;2023-05-25T06:45:22;100848.63;;;19.27;56.04
55460;BME280;41326;45.302;-122.946;2023-05-25T06:47:52;100847.06;;;19.23;56.04
55460;BME280;41326;45.302;-122.946;2023-05-25T06:50:23;100843.85;;;19.30;55.85
55460;BME280;41326;45.302;-122.946;2023-05-25T06:52:53;100845.96;;;19.36;55.65
55460;BME280;41326;45.302;-122.946;2023-05-25T06:55:23;100846.13;;;19.29;55.83
55460;BME280;41326;45.302;-122.946;2023-05-25T06:57:55;100844.04;;;19.27;55.93
55460;BME280;41326;45.302;-122.946;2023-05-25T07:00:25;100842.92;;;19.27;55.86
55460;BME280;41326;45.302;-122.946;2023-05-25T07:02:55;100837.35;;;19.25;55.80
55460;BME280;41326;45.302;-122.946;2023-05-25T07:05:25;100834.68;;;19.23;55.76
55460;BME280;41326;45.302;-122.946;2023-05-25T07:07:55;100834.59;;;19.17;55.93
55460;BME280;41326;45.302;-122.946;2023-05-25T07:10:27;100834.03;;;19.15;56.02
55460;BME280;41326;45.302;-122.946;2023-05-25T07:12:56;100830.38;;;19.17;55.71
55460;BME280;41326;45.302;-122.946;2023-05-25T07:15:27;100828.53;;;19.16;55.84
55460;BME280;41326;45.302;-122.946;2023-05-25T07:17:57;100826.91;;;19.14;56.06
55460;BME280;41326;45.302;-122.946;2023-05-25T07:20:27;100830.81;;;19.18;55.90
55460;BME280;41326;45.302;-122.946;2023-05-25T07:22:57;100836.70;;;19.18;55.83
55460;BME280;41326;45.302;-122.946;2023-05-25T07:25:28;100835.44;;;19.13;55.93
55460;BME280;41326;45.302;-122.946;2023-05-25T07:27:58;100838.03;;;19.07;56.00
55460;BME280;41326;45.302;-122.946;2023-05-25T07:30:29;100832.95;;;19.01;56.24
55460;BME280;41326;45.302;-122.946;2023-05-25T07:32:59;100837.38;;;19.00;56.22
55460;BME280;41326;45.302;-122.946;2023-05-25T07:35:30;100840.37;;;18.93;56.51
55460;BME280;41326;45.302;-122.946;2023-05-25T07:38:03;100839.15;;;19.00;56.22
55460;BME280;41326;45.302;-122.946;2023-05-25T07:40:30;100842.75;;;18.94;56.44
55460;BME280;41326;45.302;-122.946;2023-05-25T07:43:00;100837.93;;;19.01;56.23
55460;BME280;41326;45.302;-122.946;2023-05-25T07:45:31;100841.27;;;18.94;56.26
55460;BME280;41326;45.302;-122.946;2023-05-25T07:48:01;100850.21;;;18.93;56.19
55460;BME280;41326;45.302;-122.946;2023-05-25T07:50:31;100849.45;;;18.79;56.14
55460;BME280;41326;45.302;-122.946;2023-05-25T07:53:02;100850.07;;;18.77;56.23
55460;BME280;41326;45.302;-122.946;2023-05-25T07:55:32;100847.79;;;18.82;56.23
55460;BME280;41326;45.302;-122.946;2023-05-25T07:58:03;100848.38;;;18.86;56.11
55460;BME280;41326;45.302;-122.946;2023-05-25T08:00:33;100843.80;;;18.79;56.25
55460;BME280;41326;45.302;-122.946;2023-05-25T08:03:04;100839.16;;;18.77;56.33
55460;BME280;41326;45.302;-122.946;2023-05-25T08:05:34;100847.93;;;18.80;56.20
55460;BME280;41326;45.302;-122.946;2023-05-25T08:08:04;100843.70;;;18.66;56.49
55460;BME280;41326;45.302;-122.946;2023-05-25T08:10:35;100843.21;;;18.75;56.16
55460;BME280;41326;45.302;-122.946;2023-05-25T08:13:05;100845.88;;;18.77;56.15
55460;BME280;41326;45.302;-122.946;2023-05-25T08:15:36;100844.95;;;18.74;56.17
55460;BME280;41326;45.302;-122.946;2023-05-25T08:18:06;100838.48;;;18.72;56.20
55460;BME280;41326;45.302;-122.946;2023-05-25T08:20:36;100837.73;;;18.74;56.17
55460;BME280;41326;45.302;-122.946;2023-05-25T08:23:07;100833.14;;;18.70;56.10
55460;BME280;41326;45.302;-122.946;2023-05-25T08:25:37;100833.29;;;18.70;56.12
55460;BME280;41326;45.302;-122.946;2023-05-25T08:28:07;100832.43;;;18.60;56.31
55460;BME280;41326;45.302;-122.946;2023-05-25T08:30:38;100834.85;;;18.65;56.21
55460;BME280;41326;45.302;-122.946;2023-05-25T08:33:08;100833.57;;;18.72;56.02
55460;BME280;41326;45.302;-122.946;2023-05-25T08:35:38;100832.02;;;18.65;56.20
55460;BME280;41326;45.302;-122.946;2023-05-25T08:38:08;100827.23;;;18.63;56.17
55460;BME280;41326;45.302;-122.946;2023-05-25T08:40:40;100828.92;;;18.62;56.17
55460;BME280;41326;45.302;-122.946;2023-05-25T08:43:09;100827.09;;;18.59;56.12
55460;BME280;41326;45.302;-122.946;2023-05-25T08:45:39;100828.78;;;18.60;56.10
55460;BME280;41326;45.302;-122.946;2023-05-25T08:48:13;100827.50;;;18.50;56.26
55460;BME280;41326;45.302;-122.946;2023-05-25T08:50:39;100828.40;;;18.54;56.16
55460;BME280;41326;45.302;-122.946;2023-05-25T08:53:13;100825.72;;;18.54;56.03
55460;BME280;41326;45.302;-122.946;2023-05-25T08:55:42;100825.92;;;18.59;55.90
55460;BME280;41326;45.302;-122.946;2023-05-25T08:58:15;100819.03;;;18.55;55.92
55460;BME280;41326;45.302;-122.946;2023-05-25T09:00:47;100819.27;;;18.52;56.05
55460;BME280;41326;45.302;-122.946;2023-05-25T09:03:15;100813.96;;;18.49;56.09
55460;BME280;41326;45.302;-122.946;2023-05-25T09:05:42;100815.60;;;18.49;56.04
55460;BME280;41326;45.302;-122.946;2023-05-25T09:08:12;100813.35;;;18.49;56.09
55460;BME280;41326;45.302;-122.946;2023-05-25T09:10:42;100813.18;;;18.50;56.08
55460;BME280;41326;45.302;-122.946;2023-05-25T09:13:13;100816.59;;;18.44;56.26
55460;BME280;41326;45.302;-122.946;2023-05-25T09:15:43;100820.64;;;18.46;56.32
55460;BME280;41326;45.302;-122.946;2023-05-25T09:18:13;100821.81;;;18.50;56.26
55460;BME280;41326;45.302;-122.946;2023-05-25T09:20:43;100816.63;;;18.48;56.21
55460;BME280;41326;45.302;-122.946;2023-05-25T09:23:14;100814.49;;;18.46;56.17
55460;BME280;41326;45.302;-122.946;2023-05-25T09:25:45;100815.83;;;18.39;56.33
55460;BME280;41326;45.302;-122.946;2023-05-25T09:28:14;100811.60;;;18.39;56.35
55460;BME280;41326;45.302;-122.946;2023-05-25T09:30:45;100808.28;;;18.41;56.33
55460;BME280;41326;45.302;-122.946;2023-05-25T09:33:16;100809.77;;;18.36;56.34
55460;BME280;41326;45.302;-122.946;2023-05-25T09:35:46;100807.30;;;18.37;56.37
55460;BME280;41326;45.302;-122.946;2023-05-25T09:38:19;100800.75;;;18.31;56.56
55460;BME280;41326;45.302;-122.946;2023-05-25T09:40:47;100800.20;;;18.33;56.51
55460;BME280;41326;45.302;-122.946;2023-05-25T09:43:17;100791.41;;;18.30;56.52
55460;BME280;41326;45.302;-122.946;2023-05-25T09:45:47;100796.42;;;18.36;56.25
55460;BME280;41326;45.302;-122.946;2023-05-25T09:48:18;100791.23;;;18.29;56.34
55460;BME280;41326;45.302;-122.946;2023-05-25T09:50:49;100788.31;;;18.33;56.22
55460;BME280;41326;45.302;-122.946;2023-05-25T09:53:19;100786.81;;;18.32;56.31
55460;BME280;41326;45.302;-122.946;2023-05-25T09:55:49;100793.33;;;18.25;56.43
55460;BME280;41326;45.302;-122.946;2023-05-25T09:58:21;100793.45;;;18.25;56.42
55460;BME280;41326;45.302;-122.946;2023-05-25T10:00:51;100792.50;;;18.26;56.48
55460;BME280;41326;45.302;-122.946;2023-05-25T10:03:20;100795.10;;;18.30;56.34
55460;BME280;41326;45.302;-122.946;2023-05-25T10:05:51;100793.24;;;18.28;56.38
55460;BME280;41326;45.302;-122.946;2023-05-25T10:08:21;100793.79;;;18.32;56.36
55460;BME280;41326;45.302;-122.946;2023-05-25T10:10:51;100795.20;;;18.32;56.36
55460;BME280;41326;45.302;-122.946;2023-05-25T10:13:24;100799.03;;;18.29;56.49
55460;BME280;41326;45.302;-122.946;2023-05-25T10:15:52;100801.41;;;18.33;56.45
55460;BME280;41326;45.302;-122.946;2023-05-25T10:18:23;100798.26;;;18.31;56.49
55460;BME280;41326;45.302;-122.946;2023-05-25T10:20:56;100799.27;;;18.22;56.72
55460;BME280;41326;45.302;-122.946;2023-05-25T10:23:25;100802.10;;;18.17;56.83
55460;BME280;41326;45.302;-122.946;2023-05-25T10:25:54;100802.42;;;18.13;56.97
55460;BME280;41326;45.302;-122.946;2023-05-25T10:28:27;100801.62;;;18.08;57.08
55460;BME280;41326;45.302;-122.946;2023-05-25T10:30:54;100798.38;;;18.13;56.93
55460;BME280;41326;45.302;-122.946;2023-05-25T10:33:24;100800.83;;;18.10;57.03
55460;BME280;41326;45.302;-122.946;2023-05-25T10:35:55;100800.46;;;18.12;56.97
55460;BME280;41326;45.302;-122.946;2023-05-25T10:38:25;100804.63;;;18.02;57.29
55460;BME280;41326;45.302;-122.946;2023-05-25T10:40:55;100801.94;;;18.06;57.12
55460;BME280;41326;45.302;-122.946;2023-05-25T10:43:26;100803.39;;;18.01;57.34
55460;BME280;41326;45.302;-122.946;2023-05-25T10:45:55;100804.07;;;17.94;57.59
55460;BME280;41326;45.302;-122.946;2023-05-25T10:50:56;100802.99;;;17.99;57.44
55460;BME280;41326;45.302;-122.946;2023-05-25T10:53:27;100801.92;;;18.03;57.35
55460;BME280;41326;45.302;-122.946;2023-05-25T10:56:02;100808.64;;;18.03;57.35
55460;BME280;41326;45.302;-122.946;2023-05-25T10:58:28;100807.84;;;18.05;57.32
55460;BME280;41326;45.302;-122.946;2023-05-25T11:01:02;100807.87;;;18.02;57.44
55460;BME280;41326;45.302;-122.946;2023-05-25T11:05:59;100796.66;;;18.03;57.40
55460;BME280;41326;45.302;-122.946;2023-05-25T11:11:03;100805.41;;;17.94;57.55
55460;BME280;41326;45.302;-122.946;2023-05-25T11:13:34;100802.56;;;17.95;57.53
55460;BME280;41326;45.302;-122.946;2023-05-25T11:16:11;100802.92;;;17.95;57.54
55460;BME280;41326;45.302;-122.946;2023-05-25T11:18:36;100797.95;;;17.94;57.52
55460;BME280;41326;45.302;-122.946;2023-05-25T11:23:31;100799.32;;;17.94;57.42
55460;BME280;41326;45.302;-122.946;2023-05-25T11:26:10;100796.64;;;17.89;57.51
55460;BME280;41326;45.302;-122.946;2023-05-25T11:31:04;100795.99;;;17.91;57.40
55460;BME280;41326;45.302;-122.946;2023-05-25T11:33:32;100800.66;;;17.87;57.47
55460;BME280;41326;45.302;-122.946;2023-05-25T11:36:04;100794.50;;;17.87;57.41
55460;BME280;41326;45.302;-122.946;2023-05-25T11:38:34;100796.17;;;17.90;57.25
55460;BME280;41326;45.302;-122.946;2023-05-25T11:43:36;100794.47;;;17.74;57.68
55460;BME280;41326;45.302;-122.946;2023-05-25T11:46:07;100792.20;;;17.69;57.72
55460;BME280;41326;45.302;-122.946;2023-05-25T11:48:35;100791.63;;;17.71;57.59
55460;BME280;41326;45.302;-122.946;2023-05-25T11:51:09;100784.59;;;17.67;57.69
55460;BME280;41326;45.302;-122.946;2023-05-25T11:56:05;100784.85;;;17.61;57.76
55460;BME280;41326;45.302;-122.946;2023-05-25T11:58:38;100787.75;;;17.61;57.77
55460;BME280;41326;45.302;-122.946;2023-05-25T12:01:13;100788.09;;;17.61;57.71
55460;BME280;41326;45.302;-122.946;2023-05-25T12:03:35;100789.14;;;17.61;57.68
55460;BME280;41326;45.302;-122.946;2023-05-25T12:06:06;100790.89;;;17.59;57.66
55460;BME280;41326;45.302;-122.946;2023-05-25T12:08:37;100788.29;;;17.60;57.65
55460;BME280;41326;45.302;-122.946;2023-05-25T12:11:07;100784.35;;;17.61;57.61
55460;BME280;41326;45.302;-122.946;2023-05-25T12:13:39;100784.85;;;17.54;57.84
55460;BME280;41326;45.302;-122.946;2023-05-25T12:16:07;100781.09;;;17.55;57.79
55460;BME280;41326;45.302;-122.946;2023-05-25T12:18:38;100785.35;;;17.54;57.80
55460;BME280;41326;45.302;-122.946;2023-05-25T12:21:08;100783.16;;;17.56;57.65
55460;BME280;41326;45.302;-122.946;2023-05-25T12:23:38;100784.63;;;17.55;57.68
55460;BME280;41326;45.302;-122.946;2023-05-25T12:26:14;100782.99;;;17.55;57.69
55460;BME280;41326;45.302;-122.946;2023-05-25T12:28:38;100781.58;;;17.60;57.45
55460;BME280;41326;45.302;-122.946;2023-05-25T12:33:39;100778.24;;;17.52;57.59
55460;BME280;41326;45.302;-122.946;2023-05-25T12:36:10;100778.51;;;17.49;57.65
55460;BME280;41326;45.302;-122.946;2023-05-25T12:38:40;100776.49;;;17.46;57.63
55460;BME280;41326;45.302;-122.946;2023-05-25T12:41:11;100781.34;;;17.38;57.90
55460;BME280;41326;45.302;-122.946;2023-05-25T12:43:43;100779.52;;;17.42;57.77
55460;BME280;41326;45.302;-122.946;2023-05-25T12:46:11;100777.98;;;17.46;57.65
55460;BME280;41326;45.302;-122.946;2023-05-25T12:48:41;100777.37;;;17.47;57.55
55460;BME280;41326;45.302;-122.946;2023-05-25T12:51:11;100774.94;;;17.43;57.69
55460;BME280;41326;45.302;-122.946;2023-05-25T12:53:47;100769.34;;;17.45;57.60
55460;BME280;41326;45.302;-122.946;2023-05-25T12:56:12;100773.21;;;17.38;57.76